Time;durP1;ratioP1;P1;durP2;ratioP2;P2;SDS_P1;SDS_P2;PMS_P1;PMS_P2;Temp;Humidity;BMP_temperature;BMP_pressure;BME280_temperature;BME280_humidity;BME280_pressure;Samples;Min_cycle;Max_cycle;Signal;HPM_P1;HPM_P2
2022/07/08 00:00:15;;;;;;;1.60;0.73;;;26.10;39.90;;;;;;6142902;28;20038;-75
2022/07/08 00:03:15;;;;;;;0.65;0.65;;;26.10;40.00;;;;;;6137965;28;20031;-75
2022/07/08 00:06:17;;;;;;;0.82;0.75;;;26.10;40.00;;;;;;6151919;28;20031;-76
2022/07/08 00:09:18;;;;;;;1.25;0.70;;;26.00;40.00;;;;;;6149584;28;20093;-76
2022/07/08 00:12:19;;;;;;;0.73;0.70;;;26.00;40.10;;;;;;6145750;28;20034;-76
2022/07/08 00:15:21;;;;;;;0.75;0.70;;;26.00;40.10;;;;;;6140883;28;20032;-75
2022/07/08 00:18:21;;;;;;;3.28;0.68;;;26.00;40.10;;;;;;6149468;28;20425;-76
2022/07/08 00:21:22;;;;;;;2.80;0.60;;;26.00;40.10;;;;;;6141327;28;20067;-77
2022/07/08 00:24:23;;;;;;;3.10;0.70;;;26.00;40.10;;;;;;6142233;28;20114;-75
2022/07/08 00:27:25;;;;;;;2.03;0.88;;;26.00;40.20;;;;;;6154204;28;20051;-75
2022/07/08 00:30:26;;;;;;;0.95;0.50;;;25.90;40.20;;;;;;6157426;28;20041;-76
2022/07/08 00:33:26;;;;;;;0.60;0.60;;;25.90;40.30;;;;;;6144727;28;20067;-77
2022/07/08 00:36:27;;;;;;;4.30;0.57;;;25.90;40.30;;;;;;6164171;28;20026;-75
2022/07/08 00:39:28;;;;;;;3.03;0.50;;;25.90;40.50;;;;;;6143007;28;20470;-75
2022/07/08 00:42:29;;;;;;;2.40;0.70;;;25.80;40.50;;;;;;6163507;28;20114;-76
2022/07/08 00:45:31;;;;;;;1.52;0.80;;;25.80;40.60;;;;;;6145693;28;20420;-75
2022/07/08 00:48:32;;;;;;;0.73;0.63;;;25.80;40.70;;;;;;6145210;28;20373;-74
2022/07/08 00:51:34;;;;;;;4.05;1.05;;;25.70;40.80;;;;;;6158841;28;20322;-75
2022/07/08 00:54:35;;;;;;;0.77;0.70;;;25.70;40.90;;;;;;6156577;28;20063;-74
2022/07/08 00:57:38;;;;;;;0.75;0.60;;;25.70;41.00;;;;;;6152251;28;20089;-75
2022/07/08 01:00:39;;;;;;;0.60;0.60;;;25.70;41.10;;;;;;6141906;28;20027;-75
2022/07/08 01:03:40;;;;;;;0.70;0.70;;;25.60;41.20;;;;;;6146337;28;20115;-74
2022/07/08 01:06:41;;;;;;;4.50;0.90;;;25.60;41.30;;;;;;6131173;28;20121;-75
2022/07/08 01:09:42;;;;;;;3.10;0.90;;;25.70;41.30;;;;;;6142729;28;20070;-78
2022/07/08 01:12:43;;;;;;;1.95;0.75;;;25.70;41.30;;;;;;6155632;28;20031;-75
2022/07/08 01:15:45;;;;;;;0.57;0.57;;;25.70;41.30;;;;;;6163980;28;20061;-76
2022/07/08 01:18:46;;;;;;;1.55;0.70;;;25.70;41.20;;;;;;6161346;28;20457;-76
2022/07/08 01:21:47;;;;;;;0.60;0.60;;;25.60;41.30;;;;;;6149497;28;20043;-75
2022/07/08 01:24:48;;;;;;;3.50;0.73;;;25.60;41.40;;;;;;6166382;28;20034;-75
2022/07/08 01:27:49;;;;;;;0.90;0.70;;;25.50;41.50;;;;;;6149342;28;20066;-74
2022/07/08 01:30:50;;;;;;;1.27;0.73;;;25.50;41.50;;;;;;6156709;28;20445;-75
2022/07/08 01:33:51;;;;;;;5.88;0.93;;;25.50;41.60;;;;;;6155562;28;20427;-75
2022/07/08 01:36:52;;;;;;;0.80;0.65;;;25.60;41.70;;;;;;6146504;28;20045;-75
2022/07/08 01:39:52;;;;;;;1.10;0.63;;;25.60;41.70;;;;;;6157507;28;20034;-76
2022/07/08 01:42:53;;;;;;;0.65;0.60;;;25.50;41.80;;;;;;6140898;28;20028;-75
2022/07/08 01:45:55;;;;;;;0.88;0.75;;;25.40;41.90;;;;;;6159754;28;20418;-75
2022/07/08 01:48:56;;;;;;;1.65;0.82;;;25.40;42.10;;;;;;6155476;28;20023;-74
2022/07/08 01:51:57;;;;;;;2.75;0.60;;;25.30;42.20;;;;;;6144591;28;20039;-75
2022/07/08 01:54:57;;;;;;;4.20;0.80;;;25.30;42.10;;;;;;6127398;28;20027;-75
2022/07/08 01:57:58;;;;;;;0.70;0.55;;;25.20;42.40;;;;;;6153731;28;20118;-76
2022/07/08 02:00:59;;;;;;;0.80;0.80;;;25.20;42.50;;;;;;6149983;28;20027;-75
2022/07/08 02:04:01;;;;;;;1.55;0.65;;;25.20;42.60;;;;;;6144704;28;20122;-75
2022/07/08 02:07:02;;;;;;;1.58;0.80;;;25.20;42.40;;;;;;6158249;28;20130;-75
2022/07/08 02:10:04;;;;;;;2.63;0.90;;;25.10;42.50;;;;;;6133440;28;20036;-75
2022/07/08 02:13:05;;;;;;;1.00;0.85;;;25.10;42.70;;;;;;6151912;28;20039;-76
2022/07/08 02:16:06;;;;;;;2.65;0.90;;;25.00;42.90;;;;;;6146679;28;20126;-76
2022/07/08 02:19:07;;;;;;;0.80;0.60;;;24.90;43.10;;;;;;6155939;28;20055;-76
2022/07/08 02:22:09;;;;;;;2.25;0.70;;;24.90;43.10;;;;;;6165379;28;20432;-76
2022/07/08 02:25:11;;;;;;;2.65;0.90;;;25.00;43.10;;;;;;6169743;28;20034;-76
2022/07/08 02:28:11;;;;;;;0.65;0.63;;;25.00;43.00;;;;;;6150911;28;20408;-75
2022/07/08 02:31:12;;;;;;;0.80;0.60;;;25.00;43.60;;;;;;6151739;28;20058;-75
2022/07/08 02:34:14;;;;;;;2.58;1.00;;;24.90;43.10;;;;;;6158073;28;20528;-75
2022/07/08 02:37:15;;;;;;;1.95;0.68;;;24.90;43.20;;;;;;6159119;28;20480;-75
2022/07/08 02:40:16;;;;;;;4.85;0.70;;;24.90;43.20;;;;;;6161236;28;20073;-75
2022/07/08 02:43:17;;;;;;;0.73;0.73;;;24.90;43.20;;;;;;6138028;28;20038;-75
2022/07/08 02:46:18;;;;;;;1.00;0.98;;;24.80;43.30;;;;;;6126230;28;20038;-75
2022/07/08 02:49:19;;;;;;;0.73;0.60;;;24.80;43.50;;;;;;6141769;28;20042;-74
2022/07/08 02:52:20;;;;;;;1.52;0.85;;;24.80;43.60;;;;;;6161101;28;20031;-75
2022/07/08 02:55:21;;;;;;;1.95;0.80;;;24.80;43.60;;;;;;6123959;28;20045;-75
2022/07/08 02:58:22;;;;;;;6.63;1.05;;;24.80;43.70;;;;;;6156673;28;20054;-76
2022/07/08 03:01:23;;;;;;;2.83;0.95;;;24.80;43.60;;;;;;6142200;28;20027;-75
2022/07/08 03:04:24;;;;;;;0.65;0.65;;;24.90;43.60;;;;;;6155586;28;20463;-75
2022/07/08 03:07:25;;;;;;;2.15;0.80;;;24.90;43.60;;;;;;6126001;28;20043;-75
2022/07/08 03:10:26;;;;;;;1.80;0.80;;;24.90;43.70;;;;;;6145882;28;20408;-74
2022/07/08 03:13:27;;;;;;;1.88;0.70;;;24.90;43.80;;;;;;6151947;28;20465;-74
2022/07/08 03:16:28;;;;;;;3.42;0.90;;;24.80;43.70;;;;;;6143280;28;20112;-75
2022/07/08 03:19:30;;;;;;;2.70;0.90;;;24.80;43.80;;;;;;6154251;28;20043;-75
2022/07/08 03:22:31;;;;;;;2.05;0.98;;;24.80;43.80;;;;;;6158292;28;20063;-76
2022/07/08 03:25:35;;;;;;;1.50;0.93;;;24.80;43.90;;;;;;6158809;28;20038;-75
2022/07/08 03:28:36;;;;;;;1.40;1.00;;;24.80;43.90;;;;;;6150555;28;20034;-75
2022/07/08 03:31:38;;;;;;;1.50;0.80;;;24.70;44.00;;;;;;6160743;28;20027;-76
2022/07/08 03:34:39;;;;;;;2.47;0.88;;;24.70;44.20;;;;;;6145090;28;20023;-76
2022/07/08 03:37:43;;;;;;;1.75;0.85;;;24.60;44.40;;;;;;6165165;28;20030;-75
2022/07/08 03:44:04;;;;;;;3.45;1.08;;;24.50;44.70;;;;;;6157796;28;20030;-76
2022/07/08 03:47:05;;;;;;;4.25;0.73;;;24.50;44.80;;;;;;6154246;28;20027;-76
2022/07/08 03:50:08;;;;;;;2.65;1.10;;;24.40;44.90;;;;;;6137673;28;20031;-76
2022/07/08 03:53:09;;;;;;;1.25;0.70;;;24.40;45.00;;;;;;6136385;28;20039;-75
2022/07/08 03:56:10;;;;;;;1.63;0.90;;;24.40;45.10;;;;;;6150674;28;20035;-75
2022/07/08 03:59:11;;;;;;;1.42;0.70;;;24.40;45.10;;;;;;6151661;28;20157;-75
2022/07/08 04:02:12;;;;;;;1.13;0.82;;;24.40;45.10;;;;;;6156298;28;20031;-76
2022/07/08 04:05:13;;;;;;;3.47;0.85;;;24.30;45.10;;;;;;6131138;28;20081;-75
2022/07/08 04:08:16;;;;;;;0.80;0.80;;;24.30;45.10;;;;;;6158375;28;20035;-76
2022/07/08 04:11:17;;;;;;;1.90;1.05;;;24.30;45.20;;;;;;6144143;28;20035;-75
2022/07/08 04:14:18;;;;;;;0.95;0.70;;;24.30;45.30;;;;;;6160421;28;20034;-74
2022/07/08 04:17:19;;;;;;;0.68;0.68;;;24.20;45.30;;;;;;6153874;28;20468;-74
2022/07/08 04:20:20;;;;;;;1.75;1.05;;;24.30;45.40;;;;;;6157428;28;20046;-74
2022/07/08 04:23:21;;;;;;;0.70;0.70;;;24.20;45.50;;;;;;6158068;28;20062;-75
2022/07/08 04:26:28;;;;;;;2.35;0.73;;;24.00;45.80;;;;;;6131609;28;20034;-73
2022/07/08 04:29:29;;;;;;;2.67;0.70;;;24.00;46.10;;;;;;6149954;28;20030;-75
2022/07/08 04:32:29;;;;;;;1.38;0.98;;;24.00;46.10;;;;;;6151873;28;20446;-75
2022/07/08 04:35:31;;;;;;;1.50;0.80;;;24.00;46.00;;;;;;6152931;28;20461;-75
2022/07/08 04:38:32;;;;;;;1.98;1.10;;;24.10;46.00;;;;;;6154096;28;20032;-75
2022/07/08 04:41:32;;;;;;;1.00;0.90;;;24.20;45.90;;;;;;6167827;28;20020;-75
2022/07/08 04:44:34;;;;;;;1.23;0.82;;;24.20;45.70;;;;;;6153864;28;20521;-75
2022/07/08 04:47:35;;;;;;;1.77;1.05;;;24.10;45.60;;;;;;6139951;28;20113;-76
2022/07/08 04:50:36;;;;;;;4.25;0.93;;;24.10;45.60;;;;;;6150502;28;20037;-74
2022/07/08 04:53:37;;;;;;;0.80;0.80;;;24.00;45.80;;;;;;6155368;28;20022;-75
2022/07/08 04:56:38;;;;;;;1.77;0.93;;;24.00;45.70;;;;;;6149510;28;20117;-74
2022/07/08 04:59:39;;;;;;;0.60;0.57;;;24.00;45.60;;;;;;6130119;28;20027;-75
2022/07/08 05:02:40;;;;;;;0.68;0.68;;;24.10;45.50;;;;;;6145893;28;20050;-75
2022/07/08 05:05:41;;;;;;;2.92;0.80;;;23.90;45.40;;;;;;6144777;28;20142;-75
2022/07/08 05:08:43;;;;;;;1.70;0.90;;;23.90;45.60;;;;;;6163600;28;20333;-77
2022/07/08 05:11:44;;;;;;;4.10;0.93;;;24.00;45.60;;;;;;6160909;28;20486;-75
2022/07/08 05:14:45;;;;;;;1.77;0.77;;;24.00;45.30;;;;;;6150309;28;20047;-75
2022/07/08 05:17:47;;;;;;;12.52;1.08;;;24.00;45.30;;;;;;6157375;28;20125;-75
2022/07/08 05:20:49;;;;;;;1.23;0.88;;;23.90;45.40;;;;;;6157492;28;20030;-76
2022/07/08 05:23:50;;;;;;;3.30;0.90;;;23.90;45.70;;;;;;6154463;28;20511;-75
2022/07/08 05:26:51;;;;;;;2.20;1.00;;;23.90;45.60;;;;;;6157375;28;20054;-77
2022/07/08 05:29:52;;;;;;;5.13;0.90;;;23.90;45.60;;;;;;6151407;28;20046;-75
2022/07/08 05:32:54;;;;;;;6.95;1.23;;;23.90;45.70;;;;;;6148362;28;20051;-74
2022/07/08 05:35:56;;;;;;;0.80;0.77;;;23.90;45.70;;;;;;6140954;28;20110;-77
2022/07/08 05:38:57;;;;;;;2.47;0.90;;;23.90;45.70;;;;;;6134828;28;20394;-76
2022/07/08 05:41:58;;;;;;;0.90;0.90;;;24.00;45.70;;;;;;6147939;28;20035;-75
2022/07/08 05:44:59;;;;;;;0.88;0.80;;;23.90;45.80;;;;;;6163535;28;20027;-75
2022/07/08 05:48:00;;;;;;;0.85;0.70;;;23.90;45.90;;;;;;6159691;28;20452;-76
2022/07/08 05:51:01;;;;;;;1.85;1.08;;;24.00;46.00;;;;;;6155433;28;20097;-77
2022/07/08 05:54:02;;;;;;;2.92;0.90;;;24.10;45.90;;;;;;6143828;28;20047;-75
2022/07/08 05:57:04;;;;;;;3.63;1.00;;;24.20;45.70;;;;;;6134328;28;20027;-75
2022/07/08 06:00:06;;;;;;;1.38;1.00;;;24.20;45.50;;;;;;6164519;28;20039;-73
2022/07/08 06:03:13;;;;;;;3.70;1.08;;;24.30;45.50;;;;;;6157293;28;20169;-75
2022/07/08 06:06:15;;;;;;;1.02;0.93;;;24.40;45.30;;;;;;6147530;28;20352;-75
2022/07/08 06:09:16;;;;;;;3.40;1.40;;;24.40;45.30;;;;;;6157936;28;20097;-74
2022/07/08 06:12:18;;;;;;;4.55;0.98;;;24.50;45.40;;;;;;6167901;28;20020;-74
2022/07/08 06:15:19;;;;;;;1.63;1.20;;;24.50;45.40;;;;;;6154065;28;20499;-75
2022/07/08 06:18:20;;;;;;;3.67;1.40;;;24.50;45.40;;;;;;6165571;28;20046;-76
2022/07/08 06:21:22;;;;;;;3.80;1.33;;;24.50;45.50;;;;;;6158809;28;20035;-76
2022/07/08 06:24:23;;;;;;;1.20;1.10;;;24.50;45.50;;;;;;6157856;28;20031;-76
2022/07/08 06:27:24;;;;;;;1.67;1.30;;;24.50;45.50;;;;;;6155239;28;20030;-75
2022/07/08 06:30:25;;;;;;;3.47;1.48;;;24.40;45.70;;;;;;6141151;28;20378;-75
2022/07/08 06:33:27;;;;;;;1.42;1.23;;;24.40;45.70;;;;;;6139852;28;20823;-74
2022/07/08 06:36:28;;;;;;;3.17;1.05;;;24.50;45.60;;;;;;6170398;28;20379;-75
2022/07/08 06:39:30;;;;;;;2.97;0.98;;;24.50;45.60;;;;;;6153029;28;20090;-74
2022/07/08 06:42:31;;;;;;;1.98;1.10;;;24.50;45.60;;;;;;6152977;28;20042;-74
2022/07/08 06:45:37;;;;;;;3.60;1.25;;;24.60;45.40;;;;;;6142170;28;20038;-75
2022/07/08 06:48:38;;;;;;;1.55;1.13;;;24.60;45.40;;;;;;6155280;28;20031;-74
2022/07/08 06:51:40;;;;;;;3.03;1.38;;;24.60;45.40;;;;;;6130440;28;20371;-75
2022/07/08 06:54:41;;;;;;;3.78;1.13;;;24.60;45.40;;;;;;6147732;28;20038;-74
2022/07/08 06:57:42;;;;;;;1.42;1.08;;;24.70;45.20;;;;;;6147173;28;20467;-75
2022/07/08 07:00:43;;;;;;;1.85;1.10;;;24.70;45.10;;;;;;6153744;28;20049;-74
2022/07/08 07:03:46;;;;;;;1.42;1.10;;;24.60;45.20;;;;;;6168727;28;20023;-75
2022/07/08 07:06:48;;;;;;;2.75;1.00;;;24.50;45.40;;;;;;6151557;28;20384;-75
2022/07/08 07:09:49;;;;;;;1.33;0.93;;;24.40;45.60;;;;;;6138855;28;20049;-75
2022/07/08 07:12:50;;;;;;;9.98;1.40;;;24.40;45.70;;;;;;6169552;28;20334;-75
2022/07/08 07:15:51;;;;;;;4.72;1.30;;;24.30;45.70;;;;;;6155078;28;20109;-76
2022/07/08 07:18:52;;;;;;;1.38;1.10;;;24.30;45.70;;;;;;6138391;28;20046;-75
2022/07/08 07:21:53;;;;;;;2.15;1.08;;;24.20;45.90;;;;;;6152526;28;20035;-75
2022/07/08 07:24:54;;;;;;;1.20;1.10;;;24.30;46.10;;;;;;6148102;28;20027;-76
2022/07/08 07:27:56;;;;;;;4.93;1.15;;;24.40;45.90;;;;;;6150861;28;20086;-74
2022/07/08 07:30:57;;;;;;;2.67;1.30;;;24.50;45.90;;;;;;6173514;28;20023;-76
2022/07/08 07:33:58;;;;;;;2.55;1.45;;;24.60;45.60;;;;;;6167456;28;20030;-75
2022/07/08 07:36:59;;;;;;;1.65;1.25;;;24.50;45.60;;;;;;6154029;28;20126;-75
2022/07/08 07:40:03;;;;;;;4.65;1.30;;;24.40;46.00;;;;;;6135684;28;20038;-76
2022/07/08 07:43:04;;;;;;;1.63;1.20;;;24.40;46.20;;;;;;6168576;28;20065;-73
2022/07/08 07:46:05;;;;;;;1.30;1.20;;;24.60;46.00;;;;;;6150282;28;20045;-75
2022/07/08 07:49:06;;;;;;;4.22;1.00;;;24.80;45.70;;;;;;6153428;28;20031;-76
2022/07/08 07:52:07;;;;;;;2.25;1.00;;;25.00;45.30;;;;;;6152332;28;20027;-76
2022/07/08 07:55:09;;;;;;;2.33;1.23;;;25.20;45.00;;;;;;6150710;28;20478;-75
2022/07/08 07:58:10;;;;;;;3.75;1.08;;;25.40;44.80;;;;;;6164487;28;20031;-75
2022/07/08 08:01:11;;;;;;;4.93;1.27;;;25.50;44.60;;;;;;6121771;28;20065;-75
2022/07/08 08:04:12;;;;;;;2.47;1.23;;;25.60;44.30;;;;;;6156008;28;20024;-75
2022/07/08 08:07:13;;;;;;;1.30;1.00;;;25.70;44.20;;;;;;6152981;28;20030;-76
2022/07/08 08:10:14;;;;;;;1.33;1.02;;;25.80;44.10;;;;;;6148120;28;20042;-75
2022/07/08 08:13:15;;;;;;;1.73;1.15;;;25.90;44.00;;;;;;6152200;28;20519;-75
2022/07/08 08:16:16;;;;;;;5.70;1.38;;;26.00;43.80;;;;;;6160924;28;20031;-76
2022/07/08 08:19:17;;;;;;;1.55;1.20;;;26.00;43.70;;;;;;6145977;28;20050;-75
2022/07/08 08:22:19;;;;;;;1.30;1.20;;;26.10;43.50;;;;;;6135929;28;20346;-76
2022/07/08 08:25:21;;;;;;;4.35;1.17;;;26.20;43.30;;;;;;6139304;28;20042;-75
2022/07/08 08:28:24;;;;;;;2.67;1.15;;;26.30;43.20;;;;;;6154528;28;20031;-75
2022/07/08 08:31:25;;;;;;;0.85;0.85;;;26.40;43.00;;;;;;6158280;28;20065;-75
2022/07/08 08:34:27;;;;;;;0.88;0.88;;;26.40;42.80;;;;;;6135593;28;20054;-76
2022/07/08 08:37:28;;;;;;;1.58;1.00;;;26.50;42.70;;;;;;6151015;28;20032;-77
2022/07/08 08:40:31;;;;;;;4.40;1.30;;;26.60;42.60;;;;;;6142197;28;20027;-75
2022/07/08 08:43:33;;;;;;;1.75;1.40;;;26.60;42.40;;;;;;6119366;28;20028;-75
2022/07/08 08:46:35;;;;;;;4.28;1.17;;;26.70;42.30;;;;;;6164670;28;20031;-75
2022/07/08 08:49:36;;;;;;;4.47;1.35;;;26.80;42.00;;;;;;6157893;28;20118;-78
2022/07/08 08:52:38;;;;;;;2.92;0.98;;;26.90;41.90;;;;;;6155546;28;20038;-75
2022/07/08 08:55:40;;;;;;;3.78;1.27;;;27.00;41.80;;;;;;6144730;28;20031;-74
2022/07/08 08:58:46;;;;;;;13.05;1.48;;;27.00;41.60;;;;;;6157132;28;20030;-75
2022/07/08 09:01:48;;;;;;;6.47;1.60;;;27.10;41.40;;;;;;6131689;28;20101;-74
2022/07/08 09:04:49;;;;;;;1.40;1.10;;;27.10;41.20;;;;;;6146620;28;20118;-75
2022/07/08 09:07:50;;;;;;;3.17;1.13;;;27.10;41.10;;;;;;6150705;28;20086;-75
2022/07/08 09:10:51;;;;;;;2.75;1.25;;;27.20;41.10;;;;;;6153981;28;20046;-74
2022/07/08 09:14:12;;;;;;;5.68;1.45;;;27.20;40.90;;;;;;6123371;28;20027;-75
2022/07/08 09:17:13;;;;;;;6.32;1.20;;;27.20;40.80;;;;;;6146898;28;20043;-76
2022/07/08 09:20:14;;;;;;;1.45;1.13;;;27.20;40.70;;;;;;6152818;28;20054;-75
2022/07/08 09:23:18;;;;;;;2.08;1.10;;;27.20;40.70;;;;;;6152712;28;20032;-76
2022/07/08 09:26:27;;;;;;;4.75;1.25;;;27.20;40.70;;;;;;6140208;28;20031;-75
2022/07/08 09:29:28;;;;;;;2.20;1.10;;;27.30;40.70;;;;;;6155565;28;20475;-75
2022/07/08 09:32:29;;;;;;;2.13;1.05;;;27.40;40.40;;;;;;6156279;28;20186;-75
2022/07/08 09:35:36;;;;;;;8.50;1.42;;;27.50;40.10;;;;;;6143263;28;20086;-75
2022/07/08 09:38:40;;;;;;;2.03;0.98;;;27.60;40.00;;;;;;6148533;28;20039;-75
2022/07/08 09:41:50;;;;;;;1.30;1.15;;;27.70;39.80;;;;;;6146598;28;20123;-75
2022/07/08 09:44:53;;;;;;;1.33;0.90;;;27.60;39.80;;;;;;6158542;28;20050;-74
2022/07/08 09:48:08;;;;;;;4.28;0.98;;;27.70;39.70;;;;;;6143879;28;20050;-74
2022/07/08 09:51:09;;;;;;;1.52;1.00;;;27.80;39.60;;;;;;6166650;28;20031;-74
2022/07/08 09:54:13;;;;;;;4.65;1.13;;;27.90;39.40;;;;;;6143834;28;20326;-74
2022/07/08 09:57:14;;;;;;;1.50;1.05;;;28.00;39.20;;;;;;6155896;28;20031;-74
2022/07/08 10:00:15;;;;;;;3.05;0.93;;;28.00;39.10;;;;;;6156579;28;20071;-75
2022/07/08 10:03:18;;;;;;;3.38;1.00;;;28.00;39.10;;;;;;6168140;28;20023;-74
2022/07/08 10:06:19;;;;;;;7.63;1.40;;;27.90;39.20;;;;;;6147956;28;20121;-76
2022/07/08 10:09:22;;;;;;;1.02;0.93;;;27.90;39.30;;;;;;6131860;28;20090;-75
2022/07/08 10:12:24;;;;;;;2.22;1.15;;;27.80;39.30;;;;;;6138840;28;20023;-76
2022/07/08 10:15:26;;;;;;;1.25;1.10;;;27.80;39.40;;;;;;6154708;28;20074;-76
2022/07/08 10:18:47;;;;;;;6.10;1.40;;;27.80;39.50;;;;;;6121934;28;20372;-75
2022/07/08 10:21:54;;;;;;;7.78;1.98;;;27.80;39.50;;;;;;6159293;28;20041;-75
2022/07/08 10:24:58;;;;;;;1.33;1.08;;;27.90;39.50;;;;;;6125864;28;20122;-74
2022/07/08 10:28:06;;;;;;;3.20;1.30;;;27.90;39.50;;;;;;6143250;28;20039;-76
2022/07/08 10:31:24;;;;;;;3.33;1.02;;;28.00;39.50;;;;;;6157381;28;20034;-75
2022/07/08 10:34:34;;;;;;;5.50;1.10;;;28.00;39.50;;;;;;6160473;28;20059;-75
2022/07/08 10:38:00;;;;;;;2.03;1.10;;;28.00;39.40;;;;;;6149291;28;20042;-75
2022/07/08 10:41:04;;;;;;;1.92;0.98;;;28.00;39.40;;;;;;6139033;28;20038;-75
2022/07/08 10:44:06;;;;;;;1.77;1.10;;;28.00;39.30;;;;;;6144770;28;20065;-75
2022/07/08 10:47:13;;;;;;;2.60;0.80;;;28.00;39.30;;;;;;6156467;28;20452;-77
2022/07/08 10:50:22;;;;;;;8.25;1.50;;;28.10;39.40;;;;;;6142007;28;20482;-76
2022/07/08 10:53:52;;;;;;;3.47;1.20;;;28.20;39.30;;;;;;6159766;28;20035;-76
2022/07/08 10:56:59;;;;;;;4.72;1.33;;;28.20;39.20;;;;;;6139425;28;20031;-75
2022/07/08 11:00:06;;;;;;;4.35;1.30;;;28.20;39.00;;;;;;6143472;28;20035;-75
2022/07/08 11:03:10;;;;;;;4.38;1.10;;;28.30;38.90;;;;;;6136330;28;20027;-75
2022/07/08 11:06:36;;;;;;;4.10;0.98;;;28.30;38.80;;;;;;6144513;28;20429;-77
2022/07/08 11:09:39;;;;;;;1.55;0.88;;;28.40;38.60;;;;;;6140628;28;20031;-74
2022/07/08 11:12:47;;;;;;;1.42;0.93;;;29.20;37.50;;;;;;6122263;28;20031;-76
2022/07/08 11:15:48;;;;;;;1.30;1.10;;;29.90;35.90;;;;;;6157089;28;20027;-76
2022/07/08 11:18:51;;;;;;;1.30;0.98;;;30.90;34.60;;;;;;6164077;28;20047;-75
2022/07/08 11:22:01;;;;;;;1.60;0.88;;;31.60;33.40;;;;;;6153864;28;20027;-75
2022/07/08 11:25:03;;;;;;;1.48;1.02;;;31.80;32.50;;;;;;6139571;28;20059;-76
2022/07/08 11:28:21;;;;;;;2.42;0.90;;;32.40;32.10;;;;;;6146638;28;20102;-76
2022/07/08 11:31:26;;;;;;;1.30;0.80;;;32.60;31.30;;;;;;6140864;28;20038;-75
2022/07/08 11:34:28;;;;;;;4.00;1.10;;;32.80;31.00;;;;;;6151802;28;20042;-73
2022/07/08 11:37:38;;;;;;;3.53;0.90;;;33.20;30.70;;;;;;6151502;28;20086;-76
2022/07/08 11:40:44;;;;;;;2.15;1.10;;;33.30;30.10;;;;;;6147908;28;20031;-74
2022/07/08 11:43:46;;;;;;;3.33;1.00;;;33.50;30.10;;;;;;6132333;28;20484;-75
2022/07/08 11:46:53;;;;;;;6.45;1.00;;;33.50;30.00;;;;;;6143620;28;20144;-74
2022/07/08 11:49:56;;;;;;;2.83;0.93;;;33.60;29.80;;;;;;6151418;28;20138;-75
2022/07/08 11:52:58;;;;;;;4.90;0.90;;;33.60;29.70;;;;;;6152243;28;20114;-75
2022/07/08 11:55:59;;;;;;;6.15;1.10;;;33.60;29.70;;;;;;6141603;28;20140;-75
2022/07/08 11:59:00;;;;;;;3.38;1.02;;;33.50;29.60;;;;;;6139972;28;20023;-75
2022/07/08 12:02:03;;;;;;;2.58;1.30;;;33.60;29.70;;;;;;6143118;28;20047;-75
2022/07/08 12:05:10;;;;;;;4.53;1.00;;;33.60;29.60;;;;;;6141119;28;20053;-76
2022/07/08 12:08:12;;;;;;;8.98;0.80;;;33.60;29.50;;;;;;6147606;28;20055;-76
2022/07/08 12:11:15;;;;;;;6.97;0.80;;;33.70;29.40;;;;;;6151479;28;20027;-77
2022/07/08 12:14:16;;;;;;;8.60;1.00;;;33.60;29.30;;;;;;6152527;28;20035;-75
2022/07/08 12:17:25;;;;;;;2.50;1.08;;;33.70;29.30;;;;;;6145015;28;20035;-77
2022/07/08 12:20:34;;;;;;;6.05;0.90;;;33.80;29.20;;;;;;6155778;28;20046;-76
2022/07/08 12:23:43;;;;;;;0.95;0.70;;;34.00;28.80;;;;;;6154591;28;20038;-74
2022/07/08 12:26:57;;;;;;;2.10;0.80;;;34.10;28.60;;;;;;6163188;28;20035;-75
2022/07/08 12:30:04;;;;;;;14.52;1.05;;;34.20;28.40;;;;;;6131830;28;20039;-76
2022/07/08 12:33:05;;;;;;;9.70;1.13;;;34.20;28.20;;;;;;6161114;28;20146;-76
2022/07/08 12:36:25;;;;;;;4.22;0.90;;;34.30;28.20;;;;;;6126335;28;20352;-75
2022/07/08 12:39:30;;;;;;;8.15;2.00;;;34.50;27.80;;;;;;6160012;28;20154;-75
2022/07/08 12:42:31;;;;;;;2.95;0.85;;;34.80;27.50;;;;;;6150841;28;20356;-76
2022/07/08 12:45:32;;;;;;;4.45;0.80;;;34.90;27.10;;;;;;6154553;28;20027;-75
2022/07/08 12:48:33;;;;;;;6.18;1.08;;;34.80;27.10;;;;;;6161120;28;20030;-77
2022/07/08 12:51:34;;;;;;;2.45;0.82;;;34.80;27.10;;;;;;6144747;28;20054;-76
2022/07/08 12:54:37;;;;;;;2.03;0.88;;;34.90;26.90;;;;;;6156470;28;20034;-77
2022/07/08 12:57:38;;;;;;;5.63;0.90;;;34.80;27.10;;;;;;6159068;28;20035;-76
2022/07/08 13:00:39;;;;;;;5.38;0.90;;;34.40;27.20;;;;;;6174413;28;20348;-76
2022/07/08 13:03:40;;;;;;;2.47;0.63;;;34.40;27.20;;;;;;6144968;28;20518;-76
2022/07/08 13:06:42;;;;;;;1.05;0.82;;;34.70;26.90;;;;;;6158290;28;20039;-75
2022/07/08 13:09:43;;;;;;;1.50;0.60;;;34.90;26.50;;;;;;6173717;28;20476;-75
2022/07/08 13:12:46;;;;;;;4.95;0.80;;;35.00;26.40;;;;;;6142618;28;20035;-76
2022/07/08 13:15:47;;;;;;;8.70;0.93;;;35.50;26.10;;;;;;6155394;28;20026;-77
2022/07/08 13:18:48;;;;;;;3.28;0.88;;;35.90;25.60;;;;;;6173961;28;20054;-75
2022/07/08 13:21:49;;;;;;;1.83;0.80;;;36.30;25.30;;;;;;6140219;28;20035;-76
2022/07/08 13:24:51;;;;;;;5.00;1.00;;;36.50;24.70;;;;;;6172684;28;20033;-76
2022/07/08 13:27:54;;;;;;;4.78;0.88;;;36.60;24.70;;;;;;6156876;28;20026;-76
2022/07/08 13:30:56;;;;;;;3.33;0.90;;;37.00;24.40;;;;;;6148340;28;20031;-76
2022/07/08 13:33:57;;;;;;;2.53;0.88;;;37.30;24.00;;;;;;6143238;28;20130;-75
2022/07/08 13:36:58;;;;;;;12.18;1.00;;;37.50;23.80;;;;;;6156134;28;20030;-76
2022/07/08 13:40:03;;;;;;;2.63;1.00;;;37.90;23.40;;;;;;6136556;28;20031;-76
2022/07/08 13:43:06;;;;;;;2.47;0.70;;;38.20;23.10;;;;;;6143043;28;20026;-75
2022/07/08 13:46:08;;;;;;;1.60;0.80;;;38.40;23.00;;;;;;6174512;28;20265;-75
2022/07/08 13:49:10;;;;;;;5.43;1.00;;;38.60;22.70;;;;;;6174375;28;20130;-76
2022/07/08 13:52:11;;;;;;;4.32;1.00;;;38.80;22.50;;;;;;6170647;28;20022;-76
2022/07/08 13:55:12;;;;;;;3.05;0.50;;;38.90;22.50;;;;;;6137450;28;20116;-75
2022/07/08 13:58:13;;;;;;;1.63;0.70;;;39.10;22.20;;;;;;6158100;28;20030;-76
2022/07/08 14:01:15;;;;;;;2.40;0.63;;;39.20;22.20;;;;;;6157562;28;20401;-75
2022/07/08 14:04:16;;;;;;;2.83;0.63;;;39.30;22.00;;;;;;6158920;28;20134;-76
2022/07/08 14:07:18;;;;;;;2.33;0.95;;;39.50;22.30;;;;;;6140148;28;20060;-76
2022/07/08 14:10:19;;;;;;;0.73;0.73;;;39.60;21.70;;;;;;6153108;28;20045;-76
2022/07/08 14:13:20;;;;;;;1.42;1.17;;;39.90;21.40;;;;;;6156533;28;20467;-75
2022/07/08 14:16:21;;;;;;;6.65;2.80;;;39.90;21.30;;;;;;6157491;28;20039;-76
2022/07/08 14:19:22;;;;;;;234.70;71.10;;;40.00;21.40;;;;;;6163906;28;20126;-76
2022/07/08 14:22:23;;;;;;;382.13;132.88;;;40.10;21.20;;;;;;6166173;28;20022;-77
2022/07/08 14:25:24;;;;;;;181.70;59.20;;;40.10;21.20;;;;;;6172071;28;20086;-75
2022/07/08 14:28:25;;;;;;;428.98;134.90;;;40.10;21.30;;;;;;6141648;28;20046;-75
2022/07/08 14:31:27;;;;;;;549.88;183.32;;;40.20;21.30;;;;;;6142104;28;20066;-75
2022/07/08 14:34:29;;;;;;;332.25;104.35;;;40.40;21.10;;;;;;6142445;28;20444;-76
2022/07/08 14:37:30;;;;;;;103.53;35.95;;;40.50;21.00;;;;;;6153922;28;20121;-76
2022/07/08 14:40:37;;;;;;;45.05;12.65;;;40.80;20.80;;;;;;6146239;28;20472;-76
2022/07/08 14:43:38;;;;;;;15.23;6.05;;;40.80;20.70;;;;;;6142523;28;20028;-77
2022/07/08 14:46:39;;;;;;;8.95;3.58;;;40.70;20.70;;;;;;6143820;28;20048;-76
2022/07/08 14:49:40;;;;;;;11.93;3.28;;;40.50;20.70;;;;;;6148865;28;20027;-75
2022/07/08 14:52:42;;;;;;;7.57;2.17;;;40.40;20.80;;;;;;6142460;28;20046;-76
2022/07/08 14:55:43;;;;;;;4.20;1.27;;;40.50;20.60;;;;;;6148251;28;20046;-75
2022/07/08 14:58:44;;;;;;;6.50;1.30;;;40.50;20.50;;;;;;6139731;28;20039;-75
2022/07/08 15:01:45;;;;;;;5.78;1.48;;;40.60;20.50;;;;;;6149209;28;20031;-74
2022/07/08 15:04:46;;;;;;;1.17;1.00;;;40.30;20.60;;;;;;6153651;28;20024;-74
2022/07/08 15:07:47;;;;;;;3.05;0.80;;;40.00;20.80;;;;;;6142250;28;20106;-75
2022/07/08 15:10:49;;;;;;;1.38;0.75;;;39.80;20.80;;;;;;6157600;28;20059;-74
2022/07/08 15:13:50;;;;;;;3.50;1.00;;;39.50;21.20;;;;;;6160846;28;20037;-75
2022/07/08 15:16:51;;;;;;;6.88;1.00;;;39.10;21.70;;;;;;6144474;28;20480;-75
2022/07/08 15:19:52;;;;;;;4.20;0.95;;;38.80;22.00;;;;;;6146462;28;20373;-74
2022/07/08 15:22:54;;;;;;;4.65;1.23;;;38.70;22.10;;;;;;6163742;28;20441;-74
2022/07/08 15:25:55;;;;;;;3.55;0.88;;;38.40;22.40;;;;;;6148487;28;20133;-73
2022/07/08 15:28:56;;;;;;;1.45;0.88;;;38.20;22.70;;;;;;6136144;28;20152;-75
2022/07/08 15:31:58;;;;;;;0.68;0.60;;;38.20;22.80;;;;;;6145557;28;20054;-74
2022/07/08 15:34:59;;;;;;;2.15;0.70;;;38.10;22.70;;;;;;6147481;28;20429;-75
2022/07/08 15:38:02;;;;;;;1.17;0.75;;;38.20;22.80;;;;;;6137720;28;20030;-74
2022/07/08 15:41:03;;;;;;;4.88;0.98;;;38.20;22.90;;;;;;6152501;28;20027;-74
2022/07/08 15:44:04;;;;;;;4.63;1.10;;;38.20;22.90;;;;;;6165918;28;20407;-75
2022/07/08 15:47:06;;;;;;;2.90;0.95;;;38.20;22.90;;;;;;6148510;28;20039;-76
2022/07/08 15:50:08;;;;;;;2.08;0.95;;;38.20;23.00;;;;;;6137121;28;20050;-77